sensor_id;sensor_type;location;lat;lon;timestamp;P1;durP1;ratioP1;P2;durP2;ratioP2
3541;SDS011;1785;47.388;8.538;2023-07-02T00:01:18;2.23;;;1.93;;
3541;SDS011;1785;47.388;8.538;2023-07-02T00:03:44;2.20;;;2.00;;
3541;SDS011;1785;47.388;8.538;2023-07-02T00:06:10;2.43;;;2.23;;
3541;SDS011;1785;47.388;8.538;2023-07-02T00:08:37;2.30;;;2.20;;
3541;SDS011;1785;47.388;8.538;2023-07-02T00:11:05;1.90;;;1.80;;
3541;SDS011;1785;47.388;8.538;2023-07-02T00:13:31;2.43;;;2.20;;
3541;SDS011;1785;47.388;8.538;2023-07-02T00:15:58;2.73;;;2.00;;
3541;SDS011;1785;47.388;8.538;2023-07-02T00:18:24;2.00;;;1.50;;
3541;SDS011;1785;47.388;8.538;2023-07-02T00:20:58;2.50;;;2.30;;
3541;SDS011;1785;47.388;8.538;2023-07-02T00:23:26;2.83;;;2.63;;
3541;SDS011;1785;47.388;8.538;2023-07-02T00:25:52;2.70;;;2.50;;
3541;SDS011;1785;47.388;8.538;2023-07-02T00:28:18;2.83;;;2.63;;
3541;SDS011;1785;47.388;8.538;2023-07-02T00:30:44;2.63;;;2.33;;
3541;SDS011;1785;47.388;8.538;2023-07-02T00:33:10;2.70;;;2.23;;
3541;SDS011;1785;47.388;8.538;2023-07-02T00:35:37;2.13;;;1.93;;
3541;SDS011;1785;47.388;8.538;2023-07-02T00:38:03;3.27;;;2.80;;
3541;SDS011;1785;47.388;8.538;2023-07-02T00:40:29;4.73;;;2.33;;
3541;SDS011;1785;47.388;8.538;2023-07-02T00:42:55;2.40;;;2.20;;
3541;SDS011;1785;47.388;8.538;2023-07-02T00:45:22;2.90;;;2.70;;
3541;SDS011;1785;47.388;8.538;2023-07-02T00:47:51;4.63;;;2.20;;
3541;SDS011;1785;47.388;8.538;2023-07-02T00:50:19;3.33;;;2.80;;
3541;SDS011;1785;47.388;8.538;2023-07-02T00:52:51;3.17;;;2.87;;
3541;SDS011;1785;47.388;8.538;2023-07-02T00:55:19;2.25;;;2.05;;
3541;SDS011;1785;47.388;8.538;2023-07-02T00:57:46;4.67;;;2.50;;
3541;SDS011;1785;47.388;8.538;2023-07-02T01:00:13;2.70;;;2.50;;
3541;SDS011;1785;47.388;8.538;2023-07-02T01:02:39;3.20;;;2.80;;
3541;SDS011;1785;47.388;8.538;2023-07-02T01:05:09;2.97;;;2.77;;
3541;SDS011;1785;47.388;8.538;2023-07-02T01:07:38;2.57;;;2.37;;
3541;SDS011;1785;47.388;8.538;2023-07-02T01:10:05;4.00;;;3.27;;
3541;SDS011;1785;47.388;8.538;2023-07-02T01:12:31;2.53;;;2.33;;
3541;SDS011;1785;47.388;8.538;2023-07-02T01:14:59;3.63;;;3.20;;
3541;SDS011;1785;47.388;8.538;2023-07-02T01:17:29;3.63;;;3.27;;
3541;SDS011;1785;47.388;8.538;2023-07-02T01:20:03;3.53;;;3.23;;
3541;SDS011;1785;47.388;8.538;2023-07-02T01:22:33;3.90;;;3.60;;
3541;SDS011;1785;47.388;8.538;2023-07-02T01:25:00;3.33;;;3.10;;
3541;SDS011;1785;47.388;8.538;2023-07-02T01:27:27;4.33;;;3.93;;
3541;SDS011;1785;47.388;8.538;2023-07-02T01:29:53;4.00;;;3.70;;
3541;SDS011;1785;47.388;8.538;2023-07-02T01:32:20;4.47;;;4.00;;
3541;SDS011;1785;47.388;8.538;2023-07-02T01:34:47;6.43;;;5.77;;
3541;SDS011;1785;47.388;8.538;2023-07-02T01:37:14;4.53;;;4.13;;
3541;SDS011;1785;47.388;8.538;2023-07-02T01:39:41;5.10;;;3.70;;
3541;SDS011;1785;47.388;8.538;2023-07-02T01:42:09;3.90;;;3.60;;
3541;SDS011;1785;47.388;8.538;2023-07-02T01:44:35;3.90;;;3.60;;
3541;SDS011;1785;47.388;8.538;2023-07-02T01:47:02;4.20;;;3.83;;
3541;SDS011;1785;47.388;8.538;2023-07-02T01:49:29;3.47;;;3.17;;
3541;SDS011;1785;47.388;8.538;2023-07-02T01:51:56;3.70;;;3.40;;
3541;SDS011;1785;47.388;8.538;2023-07-02T01:54:23;3.80;;;3.50;;
3541;SDS011;1785;47.388;8.538;2023-07-02T01:56:52;3.30;;;3.00;;
3541;SDS011;1785;47.388;8.538;2023-07-02T01:59:18;3.90;;;3.60;;
3541;SDS011;1785;47.388;8.538;2023-07-02T02:01:44;3.40;;;3.13;;
3541;SDS011;1785;47.388;8.538;2023-07-02T02:04:10;4.73;;;3.67;;
3541;SDS011;1785;47.388;8.538;2023-07-02T02:06:37;6.83;;;4.27;;
3541;SDS011;1785;47.388;8.538;2023-07-02T02:09:04;4.70;;;4.07;;
3541;SDS011;1785;47.388;8.538;2023-07-02T02:11:31;7.00;;;4.97;;
3541;SDS011;1785;47.388;8.538;2023-07-02T02:13:58;6.23;;;4.40;;
3541;SDS011;1785;47.388;8.538;2023-07-02T02:16:27;8.33;;;5.33;;
3541;SDS011;1785;47.388;8.538;2023-07-02T02:18:53;5.30;;;4.60;;
3541;SDS011;1785;47.388;8.538;2023-07-02T02:21:20;6.27;;;4.77;;
3541;SDS011;1785;47.388;8.538;2023-07-02T02:23:46;5.33;;;4.60;;
3541;SDS011;1785;47.388;8.538;2023-07-02T02:26:13;5.80;;;5.30;;
3541;SDS011;1785;47.388;8.538;2023-07-02T02:28:40;5.30;;;4.50;;
3541;SDS011;1785;47.388;8.538;2023-07-02T02:31:06;6.80;;;4.70;;
3541;SDS011;1785;47.388;8.538;2023-07-02T02:33:32;5.10;;;4.60;;
3541;SDS011;1785;47.388;8.538;2023-07-02T02:35:58;5.73;;;5.07;;
3541;SDS011;1785;47.388;8.538;2023-07-02T02:38:24;5.60;;;5.10;;
3541;SDS011;1785;47.388;8.538;2023-07-02T02:40:50;6.23;;;5.33;;
3541;SDS011;1785;47.388;8.538;2023-07-02T02:43:16;5.30;;;4.80;;
3541;SDS011;1785;47.388;8.538;2023-07-02T02:45:43;5.60;;;5.00;;
3541;SDS011;1785;47.388;8.538;2023-07-02T02:48:10;6.67;;;5.97;;
3541;SDS011;1785;47.388;8.538;2023-07-02T02:50:36;6.25;;;5.68;;
3541;SDS011;1785;47.388;8.538;2023-07-02T02:53:06;5.70;;;5.20;;
3541;SDS011;1785;47.388;8.538;2023-07-02T02:55:32;6.27;;;4.90;;
3541;SDS011;1785;47.388;8.538;2023-07-02T02:57:58;8.40;;;5.73;;
3541;SDS011;1785;47.388;8.538;2023-07-02T03:00:24;6.50;;;5.90;;
3541;SDS011;1785;47.388;8.538;2023-07-02T03:02:51;6.47;;;5.87;;
3541;SDS011;1785;47.388;8.538;2023-07-02T03:05:17;6.17;;;5.60;;
3541;SDS011;1785;47.388;8.538;2023-07-02T03:07:43;6.20;;;5.03;;
3541;SDS011;1785;47.388;8.538;2023-07-02T03:10:09;5.90;;;5.40;;
3541;SDS011;1785;47.388;8.538;2023-07-02T03:12:35;6.07;;;5.47;;
3541;SDS011;1785;47.388;8.538;2023-07-02T03:15:01;6.73;;;6.13;;
3541;SDS011;1785;47.388;8.538;2023-07-02T03:17:28;6.07;;;5.57;;
3541;SDS011;1785;47.388;8.538;2023-07-02T03:19:55;6.80;;;5.67;;
3541;SDS011;1785;47.388;8.538;2023-07-02T03:22:21;7.60;;;6.90;;
3541;SDS011;1785;47.388;8.538;2023-07-02T03:24:47;5.67;;;5.10;;
3541;SDS011;1785;47.388;8.538;2023-07-02T03:27:13;7.77;;;5.60;;
3541;SDS011;1785;47.388;8.538;2023-07-02T03:29:39;6.87;;;6.27;;
3541;SDS011;1785;47.388;8.538;2023-07-02T03:32:06;5.70;;;5.20;;
3541;SDS011;1785;47.388;8.538;2023-07-02T03:34:32;7.07;;;5.20;;
3541;SDS011;1785;47.388;8.538;2023-07-02T03:36:59;6.30;;;5.32;;
3541;SDS011;1785;47.388;8.538;2023-07-02T03:39:25;6.00;;;5.00;;
3541;SDS011;1785;47.388;8.538;2023-07-02T03:41:51;7.20;;;6.47;;
3541;SDS011;1785;47.388;8.538;2023-07-02T03:44:17;7.70;;;6.93;;
3541;SDS011;1785;47.388;8.538;2023-07-02T03:46:44;7.23;;;6.27;;
3541;SDS011;1785;47.388;8.538;2023-07-02T03:49:11;8.43;;;7.63;;
3541;SDS011;1785;47.388;8.538;2023-07-02T03:51:37;13.13;;;7.77;;
3541;SDS011;1785;47.388;8.538;2023-07-02T03:54:04;12.77;;;8.40;;
3541;SDS011;1785;47.388;8.538;2023-07-02T03:56:30;11.40;;;9.33;;
3541;SDS011;1785;47.388;8.538;2023-07-02T03:58:56;13.90;;;10.07;;
3541;SDS011;1785;47.388;8.538;2023-07-02T04:01:22;14.60;;;10.30;;
3541;SDS011;1785;47.388;8.538;2023-07-02T04:03:49;11.03;;;9.63;;
3541;SDS011;1785;47.388;8.538;2023-07-02T04:06:16;11.30;;;8.57;;
3541;SDS011;1785;47.388;8.538;2023-07-02T04:08:42;11.07;;;9.30;;
3541;SDS011;1785;47.388;8.538;2023-07-02T04:11:09;9.40;;;8.50;;
3541;SDS011;1785;47.388;8.538;2023-07-02T04:13:36;12.60;;;9.23;;
3541;SDS011;1785;47.388;8.538;2023-07-02T04:16:02;12.33;;;8.57;;
3541;SDS011;1785;47.388;8.538;2023-07-02T04:18:28;9.20;;;8.33;;
3541;SDS011;1785;47.388;8.538;2023-07-02T04:20:54;12.27;;;8.10;;
3541;SDS011;1785;47.388;8.538;2023-07-02T04:23:21;8.50;;;7.70;;
3541;SDS011;1785;47.388;8.538;2023-07-02T04:25:47;9.77;;;7.83;;
3541;SDS011;1785;47.388;8.538;2023-07-02T04:28:14;12.07;;;6.97;;
3541;SDS011;1785;47.388;8.538;2023-07-02T04:30:40;12.30;;;7.93;;
3541;SDS011;1785;47.388;8.538;2023-07-02T04:33:07;10.37;;;8.10;;
3541;SDS011;1785;47.388;8.538;2023-07-02T04:35:33;10.50;;;7.17;;
3541;SDS011;1785;47.388;8.538;2023-07-02T04:37:59;9.90;;;7.07;;
3541;SDS011;1785;47.388;8.538;2023-07-02T04:40:25;8.60;;;7.00;;
3541;SDS011;1785;47.388;8.538;2023-07-02T04:42:52;11.13;;;7.37;;
3541;SDS011;1785;47.388;8.538;2023-07-02T04:45:23;9.07;;;6.73;;
3541;SDS011;1785;47.388;8.538;2023-07-02T04:47:49;8.20;;;7.00;;
3541;SDS011;1785;47.388;8.538;2023-07-02T04:50:16;8.27;;;6.65;;
3541;SDS011;1785;47.388;8.538;2023-07-02T04:52:42;7.83;;;6.40;;
3541;SDS011;1785;47.388;8.538;2023-07-02T04:55:08;10.57;;;6.20;;
3541;SDS011;1785;47.388;8.538;2023-07-02T04:57:35;8.07;;;6.33;;
3541;SDS011;1785;47.388;8.538;2023-07-02T05:00:01;9.67;;;7.40;;
3541;SDS011;1785;47.388;8.538;2023-07-02T05:02:30;7.30;;;6.13;;
3541;SDS011;1785;47.388;8.538;2023-07-02T05:04:56;7.23;;;6.33;;
3541;SDS011;1785;47.388;8.538;2023-07-02T05:07:22;7.40;;;6.70;;
3541;SDS011;1785;47.388;8.538;2023-07-02T05:09:48;7.10;;;6.40;;
3541;SDS011;1785;47.388;8.538;2023-07-02T05:12:17;7.00;;;6.30;;
3541;SDS011;1785;47.388;8.538;2023-07-02T05:14:43;7.77;;;7.00;;
3541;SDS011;1785;47.388;8.538;2023-07-02T05:17:09;6.10;;;5.50;;
3541;SDS011;1785;47.388;8.538;2023-07-02T05:19:36;6.13;;;5.60;;
3541;SDS011;1785;47.388;8.538;2023-07-02T05:22:02;7.20;;;5.30;;
3541;SDS011;1785;47.388;8.538;2023-07-02T05:24:28;7.33;;;6.53;;
3541;SDS011;1785;47.388;8.538;2023-07-02T05:26:54;7.57;;;6.73;;
3541;SDS011;1785;47.388;8.538;2023-07-02T05:29:20;5.93;;;5.43;;
3541;SDS011;1785;47.388;8.538;2023-07-02T05:31:47;7.07;;;6.37;;
3541;SDS011;1785;47.388;8.538;2023-07-02T05:34:13;7.57;;;6.50;;
3541;SDS011;1785;47.388;8.538;2023-07-02T05:36:40;7.33;;;6.60;;
3541;SDS011;1785;47.388;8.538;2023-07-02T05:39:06;7.35;;;5.70;;
3541;SDS011;1785;47.388;8.538;2023-07-02T05:41:32;7.27;;;6.57;;
3541;SDS011;1785;47.388;8.538;2023-07-02T05:43:58;7.93;;;7.07;;
3541;SDS011;1785;47.388;8.538;2023-07-02T05:46:24;6.97;;;6.30;;
3541;SDS011;1785;47.388;8.538;2023-07-02T05:48:50;6.83;;;6.23;;
3541;SDS011;1785;47.388;8.538;2023-07-02T05:51:19;7.43;;;6.43;;
3541;SDS011;1785;47.388;8.538;2023-07-02T05:53:50;8.27;;;7.50;;
3541;SDS011;1785;47.388;8.538;2023-07-02T05:56:17;7.20;;;6.47;;
3541;SDS011;1785;47.388;8.538;2023-07-02T05:58:43;8.13;;;7.13;;
3541;SDS011;1785;47.388;8.538;2023-07-02T06:01:10;8.23;;;6.80;;
3541;SDS011;1785;47.388;8.538;2023-07-02T06:03:36;9.73;;;7.27;;
3541;SDS011;1785;47.388;8.538;2023-07-02T06:06:02;10.20;;;6.87;;
3541;SDS011;1785;47.388;8.538;2023-07-02T06:08:28;6.93;;;6.33;;
3541;SDS011;1785;47.388;8.538;2023-07-02T06:10:55;7.50;;;6.53;;
3541;SDS011;1785;47.388;8.538;2023-07-02T06:13:21;11.80;;;7.63;;
3541;SDS011;1785;47.388;8.538;2023-07-02T06:15:47;8.20;;;7.33;;
3541;SDS011;1785;47.388;8.538;2023-07-02T06:18:13;12.43;;;7.43;;
3541;SDS011;1785;47.388;8.538;2023-07-02T06:20:39;6.77;;;6.10;;
3541;SDS011;1785;47.388;8.538;2023-07-02T06:23:05;6.83;;;6.13;;
3541;SDS011;1785;47.388;8.538;2023-07-02T06:25:31;8.93;;;7.60;;
3541;SDS011;1785;47.388;8.538;2023-07-02T06:27:58;7.73;;;7.03;;
3541;SDS011;1785;47.388;8.538;2023-07-02T06:30:25;9.97;;;8.30;;
3541;SDS011;1785;47.388;8.538;2023-07-02T06:32:51;8.07;;;7.23;;
3541;SDS011;1785;47.388;8.538;2023-07-02T06:35:19;10.43;;;7.20;;
3541;SDS011;1785;47.388;8.538;2023-07-02T06:37:45;8.97;;;7.80;;
3541;SDS011;1785;47.388;8.538;2023-07-02T06:40:12;10.32;;;7.97;;
3541;SDS011;1785;47.388;8.538;2023-07-02T06:42:38;8.73;;;7.80;;
3541;SDS011;1785;47.388;8.538;2023-07-02T06:45:05;11.30;;;7.70;;
3541;SDS011;1785;47.388;8.538;2023-07-02T06:47:32;11.50;;;9.20;;
3541;SDS011;1785;47.388;8.538;2023-07-02T06:49:58;13.03;;;8.63;;
3541;SDS011;1785;47.388;8.538;2023-07-02T06:52:24;10.13;;;8.90;;
3541;SDS011;1785;47.388;8.538;2023-07-02T06:54:50;11.00;;;8.30;;
3541;SDS011;1785;47.388;8.538;2023-07-02T06:57:16;9.23;;;8.40;;
3541;SDS011;1785;47.388;8.538;2023-07-02T06:59:43;13.73;;;10.60;;
3541;SDS011;1785;47.388;8.538;2023-07-02T07:02:09;17.83;;;13.97;;
3541;SDS011;1785;47.388;8.538;2023-07-02T07:04:35;18.73;;;13.63;;
3541;SDS011;1785;47.388;8.538;2023-07-02T07:07:02;19.30;;;14.70;;
3541;SDS011;1785;47.388;8.538;2023-07-02T07:09:29;19.73;;;15.50;;
3541;SDS011;1785;47.388;8.538;2023-07-02T07:11:55;21.03;;;15.40;;
3541;SDS011;1785;47.388;8.538;2023-07-02T07:14:21;20.23;;;14.40;;
3541;SDS011;1785;47.388;8.538;2023-07-02T07:16:48;17.90;;;14.23;;
3541;SDS011;1785;47.388;8.538;2023-07-02T07:19:14;22.80;;;16.10;;
3541;SDS011;1785;47.388;8.538;2023-07-02T07:21:41;17.60;;;14.57;;
3541;SDS011;1785;47.388;8.538;2023-07-02T07:24:08;23.90;;;15.57;;
3541;SDS011;1785;47.388;8.538;2023-07-02T07:26:34;21.80;;;15.73;;
3541;SDS011;1785;47.388;8.538;2023-07-02T07:29:00;21.57;;;15.90;;
3541;SDS011;1785;47.388;8.538;2023-07-02T07:31:27;21.03;;;15.60;;
3541;SDS011;1785;47.388;8.538;2023-07-02T07:33:53;24.50;;;17.83;;
3541;SDS011;1785;47.388;8.538;2023-07-02T07:36:19;21.60;;;16.27;;
3541;SDS011;1785;47.388;8.538;2023-07-02T07:38:45;26.67;;;16.83;;
3541;SDS011;1785;47.388;8.538;2023-07-02T07:41:11;21.42;;;16.38;;
3541;SDS011;1785;47.388;8.538;2023-07-02T07:43:37;23.90;;;16.03;;
3541;SDS011;1785;47.388;8.538;2023-07-02T07:46:03;22.97;;;17.40;;
3541;SDS011;1785;47.388;8.538;2023-07-02T07:48:29;22.07;;;17.13;;
3541;SDS011;1785;47.388;8.538;2023-07-02T07:50:55;19.10;;;16.60;;
3541;SDS011;1785;47.388;8.538;2023-07-02T07:53:22;22.97;;;17.00;;
3541;SDS011;1785;47.388;8.538;2023-07-02T07:55:48;21.50;;;15.45;;
3541;SDS011;1785;47.388;8.538;2023-07-02T07:58:15;22.67;;;16.23;;
3541;SDS011;1785;47.388;8.538;2023-07-02T08:00:41;20.33;;;15.67;;
3541;SDS011;1785;47.388;8.538;2023-07-02T08:03:07;23.30;;;17.00;;
3541;SDS011;1785;47.388;8.538;2023-07-02T08:05:33;26.33;;;17.40;;
3541;SDS011;1785;47.388;8.538;2023-07-02T08:07:59;25.33;;;17.80;;
3541;SDS011;1785;47.388;8.538;2023-07-02T08:10:26;24.87;;;17.43;;
3541;SDS011;1785;47.388;8.538;2023-07-02T08:12:52;31.30;;;16.30;;
3541;SDS011;1785;47.388;8.538;2023-07-02T08:15:19;23.00;;;16.23;;
3541;SDS011;1785;47.388;8.538;2023-07-02T08:17:45;24.80;;;18.43;;
3541;SDS011;1785;47.388;8.538;2023-07-02T08:20:11;24.90;;;17.40;;
3541;SDS011;1785;47.388;8.538;2023-07-02T08:22:37;23.37;;;16.17;;
3541;SDS011;1785;47.388;8.538;2023-07-02T08:25:04;24.87;;;17.60;;
3541;SDS011;1785;47.388;8.538;2023-07-02T08:27:31;23.53;;;16.90;;
3541;SDS011;1785;47.388;8.538;2023-07-02T08:29:59;27.43;;;19.47;;
3541;SDS011;1785;47.388;8.538;2023-07-02T08:32:25;24.67;;;17.27;;
3541;SDS011;1785;47.388;8.538;2023-07-02T08:34:51;22.20;;;17.13;;
3541;SDS011;1785;47.388;8.538;2023-07-02T08:37:17;27.47;;;19.70;;
3541;SDS011;1785;47.388;8.538;2023-07-02T08:39:43;24.07;;;19.17;;
3541;SDS011;1785;47.388;8.538;2023-07-02T08:42:09;24.23;;;16.10;;
3541;SDS011;1785;47.388;8.538;2023-07-02T08:44:36;23.97;;;16.93;;
3541;SDS011;1785;47.388;8.538;2023-07-02T08:47:03;25.53;;;16.27;;
3541;SDS011;1785;47.388;8.538;2023-07-02T08:49:31;27.03;;;18.10;;
3541;SDS011;1785;47.388;8.538;2023-07-02T08:51:57;24.10;;;17.60;;
3541;SDS011;1785;47.388;8.538;2023-07-02T08:54:24;22.57;;;16.37;;
3541;SDS011;1785;47.388;8.538;2023-07-02T08:56:50;23.13;;;17.75;;
3541;SDS011;1785;47.388;8.538;2023-07-02T08:59:16;21.00;;;17.07;;
3541;SDS011;1785;47.388;8.538;2023-07-02T09:01:45;22.67;;;16.90;;
3541;SDS011;1785;47.388;8.538;2023-07-02T09:04:16;21.47;;;18.03;;
3541;SDS011;1785;47.388;8.538;2023-07-02T09:06:43;24.13;;;16.70;;
3541;SDS011;1785;47.388;8.538;2023-07-02T09:09:09;28.60;;;18.80;;
3541;SDS011;1785;47.388;8.538;2023-07-02T09:11:35;25.33;;;18.10;;
3541;SDS011;1785;47.388;8.538;2023-07-02T09:14:12;21.23;;;17.23;;
3541;SDS011;1785;47.388;8.538;2023-07-02T09:16:50;26.80;;;17.37;;
3541;SDS011;1785;47.388;8.538;2023-07-02T09:19:27;22.47;;;17.47;;
3541;SDS011;1785;47.388;8.538;2023-07-02T09:21:53;20.93;;;17.73;;
3541;SDS011;1785;47.388;8.538;2023-07-02T09:24:21;26.70;;;18.90;;
3541;SDS011;1785;47.388;8.538;2023-07-02T09:26:48;24.17;;;17.67;;
3541;SDS011;1785;47.388;8.538;2023-07-02T09:29:18;26.70;;;18.90;;
3541;SDS011;1785;47.388;8.538;2023-07-02T09:31:47;22.13;;;17.83;;
3541;SDS011;1785;47.388;8.538;2023-07-02T09:34:14;23.60;;;16.70;;
3541;SDS011;1785;47.388;8.538;2023-07-02T09:36:41;26.50;;;19.27;;
3541;SDS011;1785;47.388;8.538;2023-07-02T09:39:08;24.77;;;18.33;;
3541;SDS011;1785;47.388;8.538;2023-07-02T09:41:37;25.33;;;16.73;;
3541;SDS011;1785;47.388;8.538;2023-07-02T09:44:05;25.43;;;18.73;;
3541;SDS011;1785;47.388;8.538;2023-07-02T09:46:33;25.60;;;17.90;;
3541;SDS011;1785;47.388;8.538;2023-07-02T09:49:01;22.53;;;18.30;;
3541;SDS011;1785;47.388;8.538;2023-07-02T09:51:29;24.43;;;19.70;;
3541;SDS011;1785;47.388;8.538;2023-07-02T09:53:55;27.20;;;19.87;;
3541;SDS011;1785;47.388;8.538;2023-07-02T09:56:21;25.30;;;19.97;;
3541;SDS011;1785;47.388;8.538;2023-07-02T09:58:47;28.50;;;20.37;;
3541;SDS011;1785;47.388;8.538;2023-07-02T10:01:13;26.77;;;20.00;;
3541;SDS011;1785;47.388;8.538;2023-07-02T10:03:39;28.20;;;21.57;;
3541;SDS011;1785;47.388;8.538;2023-07-02T10:06:05;27.63;;;18.70;;
3541;SDS011;1785;47.388;8.538;2023-07-02T10:08:33;31.50;;;21.73;;
3541;SDS011;1785;47.388;8.538;2023-07-02T10:11:06;27.50;;;19.13;;
3541;SDS011;1785;47.388;8.538;2023-07-02T10:13:34;26.13;;;19.30;;
3541;SDS011;1785;47.388;8.538;2023-07-02T10:16:00;24.07;;;19.07;;
3541;SDS011;1785;47.388;8.538;2023-07-02T10:18:27;28.33;;;19.83;;
3541;SDS011;1785;47.388;8.538;2023-07-02T10:20:53;26.23;;;21.17;;
3541;SDS011;1785;47.388;8.538;2023-07-02T10:23:19;30.33;;;20.07;;
3541;SDS011;1785;47.388;8.538;2023-07-02T10:25:58;25.57;;;21.03;;
3541;SDS011;1785;47.388;8.538;2023-07-02T10:28:35;26.60;;;18.90;;
3541;SDS011;1785;47.388;8.538;2023-07-02T10:31:01;25.20;;;19.10;;
3541;SDS011;1785;47.388;8.538;2023-07-02T10:33:27;25.83;;;17.67;;
3541;SDS011;1785;47.388;8.538;2023-07-02T10:35:53;25.37;;;18.10;;
3541;SDS011;1785;47.388;8.538;2023-07-02T10:38:20;26.73;;;19.00;;
3541;SDS011;1785;47.388;8.538;2023-07-02T10:40:53;26.97;;;18.30;;
3541;SDS011;1785;47.388;8.538;2023-07-02T10:43:24;28.40;;;18.90;;
3541;SDS011;1785;47.388;8.538;2023-07-02T10:45:50;23.25;;;17.65;;
3541;SDS011;1785;47.388;8.538;2023-07-02T10:48:16;24.97;;;19.30;;
3541;SDS011;1785;47.388;8.538;2023-07-02T10:50:42;21.83;;;16.93;;
3541;SDS011;1785;47.388;8.538;2023-07-02T10:53:14;19.83;;;17.27;;
3541;SDS011;1785;47.388;8.538;2023-07-02T10:55:40;21.27;;;16.40;;
3541;SDS011;1785;47.388;8.538;2023-07-02T10:58:07;23.13;;;18.27;;
3541;SDS011;1785;47.388;8.538;2023-07-02T11:00:43;22.70;;;17.60;;
3541;SDS011;1785;47.388;8.538;2023-07-02T11:03:15;20.97;;;15.70;;
3541;SDS011;1785;47.388;8.538;2023-07-02T11:05:42;22.90;;;16.47;;
3541;SDS011;1785;47.388;8.538;2023-07-02T11:08:08;20.67;;;17.50;;
3541;SDS011;1785;47.388;8.538;2023-07-02T11:10:35;21.87;;;17.33;;
3541;SDS011;1785;47.388;8.538;2023-07-02T11:13:09;24.67;;;18.30;;
3541;SDS011;1785;47.388;8.538;2023-07-02T11:15:36;24.37;;;17.80;;
3541;SDS011;1785;47.388;8.538;2023-07-02T11:18:09;20.43;;;16.43;;
3541;SDS011;1785;47.388;8.538;2023-07-02T11:20:35;22.10;;;16.83;;
3541;SDS011;1785;47.388;8.538;2023-07-02T11:23:01;20.27;;;16.03;;
3541;SDS011;1785;47.388;8.538;2023-07-02T11:25:28;21.67;;;16.20;;
3541;SDS011;1785;47.388;8.538;2023-07-02T11:28:01;17.67;;;15.77;;
3541;SDS011;1785;47.388;8.538;2023-07-02T11:30:28;21.10;;;16.00;;
3541;SDS011;1785;47.388;8.538;2023-07-02T11:32:54;20.43;;;15.83;;
3541;SDS011;1785;47.388;8.538;2023-07-02T11:35:22;22.33;;;16.43;;
3541;SDS011;1785;47.388;8.538;2023-07-02T11:38:00;18.93;;;15.60;;
3541;SDS011;1785;47.388;8.538;2023-07-02T11:40:27;20.20;;;14.60;;
3541;SDS011;1785;47.388;8.538;2023-07-02T11:42:53;19.30;;;15.10;;
3541;SDS011;1785;47.388;8.538;2023-07-02T11:45:19;18.40;;;14.50;;
3541;SDS011;1785;47.388;8.538;2023-07-02T11:47:45;20.77;;;14.40;;
3541;SDS011;1785;47.388;8.538;2023-07-02T11:50:11;20.70;;;14.40;;
3541;SDS011;1785;47.388;8.538;2023-07-02T11:52:39;17.73;;;14.27;;
3541;SDS011;1785;47.388;8.538;2023-07-02T11:55:05;17.73;;;13.63;;
3541;SDS011;1785;47.388;8.538;2023-07-02T11:57:32;15.57;;;13.37;;
3541;SDS011;1785;47.388;8.538;2023-07-02T11:59:58;19.13;;;13.80;;
3541;SDS011;1785;47.388;8.538;2023-07-02T12:02:25;17.83;;;13.60;;
3541;SDS011;1785;47.388;8.538;2023-07-02T12:04:51;15.63;;;13.30;;
3541;SDS011;1785;47.388;8.538;2023-07-02T12:07:17;14.70;;;12.10;;
3541;SDS011;1785;47.388;8.538;2023-07-02T12:09:44;16.43;;;14.63;;
3541;SDS011;1785;47.388;8.538;2023-07-02T12:12:10;19.33;;;14.20;;
3541;SDS011;1785;47.388;8.538;2023-07-02T12:14:36;18.20;;;13.93;;
3541;SDS011;1785;47.388;8.538;2023-07-02T12:17:04;14.03;;;12.37;;
3541;SDS011;1785;47.388;8.538;2023-07-02T12:19:30;22.40;;;12.93;;
3541;SDS011;1785;47.388;8.538;2023-07-02T12:21:56;15.70;;;12.47;;
3541;SDS011;1785;47.388;8.538;2023-07-02T12:24:23;13.40;;;11.50;;
3541;SDS011;1785;47.388;8.538;2023-07-02T12:26:49;12.87;;;10.50;;
3541;SDS011;1785;47.388;8.538;2023-07-02T12:29:15;15.07;;;12.20;;
3541;SDS011;1785;47.388;8.538;2023-07-02T12:31:41;14.27;;;10.90;;
3541;SDS011;1785;47.388;8.538;2023-07-02T12:34:07;13.37;;;10.27;;
3541;SDS011;1785;47.388;8.538;2023-07-02T12:36:33;13.70;;;11.20;;
3541;SDS011;1785;47.388;8.538;2023-07-02T12:39:00;14.17;;;11.67;;
3541;SDS011;1785;47.388;8.538;2023-07-02T12:41:26;13.20;;;11.47;;
3541;SDS011;1785;47.388;8.538;2023-07-02T12:43:54;16.73;;;12.00;;
3541;SDS011;1785;47.388;8.538;2023-07-02T12:46:20;13.80;;;11.00;;
3541;SDS011;1785;47.388;8.538;2023-07-02T12:48:46;15.90;;;12.37;;
3541;SDS011;1785;47.388;8.538;2023-07-02T12:51:12;13.23;;;11.37;;
3541;SDS011;1785;47.388;8.538;2023-07-02T12:53:40;12.90;;;10.50;;
3541;SDS011;1785;47.388;8.538;2023-07-02T12:56:06;16.53;;;11.67;;
3541;SDS011;1785;47.388;8.538;2023-07-02T12:58:32;14.13;;;10.13;;
3541;SDS011;1785;47.388;8.538;2023-07-02T13:00:58;14.47;;;11.57;;
3541;SDS011;1785;47.388;8.538;2023-07-02T13:03:25;12.80;;;11.40;;
3541;SDS011;1785;47.388;8.538;2023-07-02T13:05:51;14.20;;;11.93;;
3541;SDS011;1785;47.388;8.538;2023-07-02T13:08:17;13.57;;;11.80;;
3541;SDS011;1785;47.388;8.538;2023-07-02T13:10:44;15.53;;;11.43;;
3541;SDS011;1785;47.388;8.538;2023-07-02T13:13:11;17.20;;;12.20;;
3541;SDS011;1785;47.388;8.538;2023-07-02T13:15:37;12.57;;;10.80;;
3541;SDS011;1785;47.388;8.538;2023-07-02T13:18:04;12.30;;;10.47;;
3541;SDS011;1785;47.388;8.538;2023-07-02T13:20:30;14.50;;;12.43;;
3541;SDS011;1785;47.388;8.538;2023-07-02T13:22:56;12.70;;;11.10;;
3541;SDS011;1785;47.388;8.538;2023-07-02T13:25:23;15.50;;;12.03;;
3541;SDS011;1785;47.388;8.538;2023-07-02T13:27:49;15.73;;;11.30;;
3541;SDS011;1785;47.388;8.538;2023-07-02T13:30:16;13.43;;;10.20;;
3541;SDS011;1785;47.388;8.538;2023-07-02T13:32:42;14.30;;;10.90;;
3541;SDS011;1785;47.388;8.538;2023-07-02T13:35:08;16.20;;;12.30;;
3541;SDS011;1785;47.388;8.538;2023-07-02T13:37:35;13.70;;;12.07;;
3541;SDS011;1785;47.388;8.538;2023-07-02T13:40:01;14.50;;;12.97;;
3541;SDS011;1785;47.388;8.538;2023-07-02T13:42:29;15.87;;;12.83;;
3541;SDS011;1785;47.388;8.538;2023-07-02T13:44:56;14.90;;;12.00;;
3541;SDS011;1785;47.388;8.538;2023-07-02T13:47:22;18.63;;;13.10;;
3541;SDS011;1785;47.388;8.538;2023-07-02T13:49:48;17.73;;;12.13;;
3541;SDS011;1785;47.388;8.538;2023-07-02T13:52:15;15.87;;;12.87;;
3541;SDS011;1785;47.388;8.538;2023-07-02T13:54:41;17.45;;;13.18;;
3541;SDS011;1785;47.388;8.538;2023-07-02T13:57:08;17.00;;;12.10;;
3541;SDS011;1785;47.388;8.538;2023-07-02T13:59:35;17.70;;;13.20;;
3541;SDS011;1785;47.388;8.538;2023-07-02T14:02:01;15.17;;;12.20;;
3541;SDS011;1785;47.388;8.538;2023-07-02T14:04:27;16.80;;;14.10;;
3541;SDS011;1785;47.388;8.538;2023-07-02T14:06:53;15.73;;;13.73;;
3541;SDS011;1785;47.388;8.538;2023-07-02T14:09:19;20.53;;;13.87;;
3541;SDS011;1785;47.388;8.538;2023-07-02T14:11:45;15.30;;;12.30;;
3541;SDS011;1785;47.388;8.538;2023-07-02T14:14:11;15.50;;;12.80;;
3541;SDS011;1785;47.388;8.538;2023-07-02T14:16:38;14.37;;;12.63;;
3541;SDS011;1785;47.388;8.538;2023-07-02T14:19:04;16.20;;;14.10;;
3541;SDS011;1785;47.388;8.538;2023-07-02T14:21:30;17.90;;;12.90;;
3541;SDS011;1785;47.388;8.538;2023-07-02T14:23:56;17.97;;;14.93;;
3541;SDS011;1785;47.388;8.538;2023-07-02T14:26:23;18.40;;;14.10;;
3541;SDS011;1785;47.388;8.538;2023-07-02T14:28:49;16.80;;;14.10;;
3541;SDS011;1785;47.388;8.538;2023-07-02T14:31:15;20.03;;;16.13;;
3541;SDS011;1785;47.388;8.538;2023-07-02T14:33:42;15.40;;;13.17;;
3541;SDS011;1785;47.388;8.538;2023-07-02T14:36:08;18.77;;;14.67;;
3541;SDS011;1785;47.388;8.538;2023-07-02T14:38:34;15.77;;;13.93;;
3541;SDS011;1785;47.388;8.538;2023-07-02T14:41:00;15.50;;;13.43;;
3541;SDS011;1785;47.388;8.538;2023-07-02T14:43:27;17.20;;;13.00;;
3541;SDS011;1785;47.388;8.538;2023-07-02T14:45:57;15.23;;;13.70;;
3541;SDS011;1785;47.388;8.538;2023-07-02T14:48:24;17.10;;;14.10;;
3541;SDS011;1785;47.388;8.538;2023-07-02T14:50:52;15.67;;;13.97;;
3541;SDS011;1785;47.388;8.538;2023-07-02T14:53:19;17.00;;;13.10;;
3541;SDS011;1785;47.388;8.538;2023-07-02T14:55:46;15.47;;;12.20;;
3541;SDS011;1785;47.388;8.538;2023-07-02T14:58:13;14.67;;;11.70;;